createdAt,value
2019-01-26T00:02:01.195Z,23.07
2019-01-26T00:04:29.996Z,22.20
2019-01-26T00:06:58.732Z,21.00
2019-01-26T00:09:27.260Z,21.70
2019-01-26T00:11:55.989Z,22.87
2019-01-26T00:14:24.427Z,21.43
2019-01-26T00:16:52.928Z,22.63
2019-01-26T00:19:21.437Z,23.93
2019-01-26T00:21:49.932Z,20.73
2019-01-26T00:24:18.352Z,22.50
2019-01-26T00:26:46.832Z,21.80
2019-01-26T00:29:15.856Z,23.90
2019-01-26T00:31:44.337Z,27.13
2019-01-26T00:34:12.940Z,27.63
2019-01-26T00:36:41.436Z,27.97
2019-01-26T00:39:09.909Z,26.10
2019-01-26T00:41:38.385Z,29.87
2019-01-26T00:44:06.914Z,28.97
2019-01-26T00:46:35.325Z,31.17
2019-01-26T00:49:04.081Z,34.03
2019-01-26T00:51:33.305Z,36.03
2019-01-26T00:54:01.745Z,34.20
2019-01-26T00:56:30.281Z,37.30
2019-01-26T00:58:58.833Z,39.90
2019-01-26T01:01:27.413Z,39.90
2019-01-26T01:03:55.918Z,40.60
2019-01-26T01:06:25.956Z,40.77
2019-01-26T01:08:54.634Z,44.00
2019-01-26T01:11:23.069Z,44.73
2019-01-26T01:13:51.551Z,53.60
2019-01-26T01:16:20.043Z,44.47
2019-01-26T01:18:48.558Z,49.07
2019-01-26T01:21:17.362Z,47.70
2019-01-26T01:23:45.971Z,51.80
2019-01-26T01:26:14.454Z,51.63
2019-01-26T01:28:42.960Z,55.03
2019-01-26T01:31:11.462Z,55.93
2019-01-26T01:33:39.930Z,54.10
2019-01-26T01:36:09.274Z,59.33
2019-01-26T01:38:37.778Z,67.57
2019-01-26T01:41:06.290Z,57.30
2019-01-26T01:43:35.066Z,63.73
2019-01-26T01:46:03.826Z,71.93
2019-01-26T01:48:33.062Z,67.33
2019-01-26T01:51:01.694Z,70.70
2019-01-26T01:53:30.199Z,77.07
2019-01-26T01:55:58.731Z,86.73
2019-01-26T01:58:27.166Z,91.97
2019-01-26T02:00:55.667Z,89.53
2019-01-26T02:03:24.111Z,98.13
2019-01-26T02:05:52.693Z,99.07
2019-01-26T02:08:21.807Z,86.43
2019-01-26T02:10:50.855Z,88.73
2019-01-26T02:13:19.908Z,93.40
2019-01-26T02:15:49.019Z,87.95
2019-01-26T02:18:18.091Z,83.80
2019-01-26T02:20:47.087Z,87.77
2019-01-26T02:23:16.155Z,88.13
2019-01-26T02:25:45.211Z,84.50
2019-01-26T02:28:14.315Z,80.63
2019-01-26T02:30:43.467Z,85.32
2019-01-26T02:33:12.652Z,79.33
2019-01-26T02:35:41.681Z,76.37
2019-01-26T02:38:10.719Z,85.13
2019-01-26T02:40:39.793Z,81.80
2019-01-26T02:43:08.760Z,85.07
2019-01-26T02:45:37.840Z,82.13
2019-01-26T02:50:55.664Z,86.17
2019-01-26T02:53:36.052Z,86.13
2019-01-26T02:56:16.528Z,93.63
2019-01-26T02:58:45.492Z,83.67
2019-01-26T03:01:33.109Z,89.20
2019-01-26T03:04:20.733Z,85.17
2019-01-26T03:06:49.228Z,81.77
2019-01-26T03:09:17.704Z,89.43
2019-01-26T03:11:46.125Z,89.27
2019-01-26T03:14:34.236Z,93.93
2019-01-26T03:17:22.397Z,89.27
2019-01-26T03:20:10.021Z,97.90
2019-01-26T03:22:57.905Z,91.30
2019-01-26T03:25:45.614Z,84.03
2019-01-26T03:28:33.278Z,79.47
2019-01-26T03:31:20.906Z,85.53
2019-01-26T03:34:08.540Z,94.73
2019-01-26T03:36:56.186Z,83.33
2019-01-26T03:39:43.789Z,77.63
2019-01-26T03:42:31.714Z,79.17
2019-01-26T03:45:19.391Z,71.97
2019-01-26T03:48:07.453Z,76.07
2019-01-26T03:50:55.073Z,69.13
2019-01-26T03:53:42.707Z,61.43
2019-01-26T03:56:30.302Z,63.83
2019-01-26T03:59:17.938Z,66.03
2019-01-26T04:11:10.374Z,55.17
2019-01-26T06:07:40.020Z,71.30
2019-01-26T06:10:27.624Z,64.67
2019-01-26T06:12:56.138Z,61.03
2019-01-26T06:15:24.721Z,62.67
2019-01-26T06:18:12.329Z,62.67
2019-01-26T06:20:59.929Z,63.20
2019-01-26T06:23:47.561Z,60.43
2019-01-26T06:26:35.157Z,55.63
2019-01-26T06:29:22.890Z,53.90
2019-01-26T06:32:10.581Z,55.70
2019-01-26T06:34:58.214Z,57.37
2019-01-26T06:37:45.835Z,47.27
2019-01-26T06:40:33.509Z,45.43
2019-01-26T06:43:21.645Z,46.00
2019-01-26T06:46:09.261Z,43.20
2019-01-26T06:48:59.393Z,40.93
2019-01-26T06:52:06.184Z,43.07
2019-01-26T06:57:28.405Z,41.43
2019-01-26T07:00:16.129Z,40.73
2019-01-26T07:29:50.018Z,26.40
2019-01-26T07:32:37.629Z,25.83
2019-01-26T07:35:25.325Z,26.27
2019-01-26T07:38:13.911Z,25.73
2019-01-26T07:41:02.581Z,26.83
2019-01-26T07:43:50.403Z,27.03
2019-01-26T07:46:38.030Z,23.93
2019-01-26T07:49:25.742Z,22.20
2019-01-26T07:52:13.430Z,26.33
2019-01-26T07:55:01.142Z,28.97
2019-01-26T07:57:48.798Z,25.27
2019-01-26T08:00:36.436Z,24.80
2019-01-26T09:11:50.061Z,27.35
2019-01-26T09:14:18.584Z,26.37
2019-01-26T09:16:47.064Z,25.93
2019-01-26T09:19:15.560Z,26.63
2019-01-26T09:22:03.185Z,25.47
2019-01-26T09:24:50.849Z,30.67
2019-01-26T09:33:40.305Z,30.90
2019-01-26T09:39:22.537Z,36.37
2019-01-26T09:42:10.185Z,37.53
2019-01-26T09:44:57.825Z,38.43
2019-01-26T09:50:47.044Z,34.17
2019-01-26T09:57:08.664Z,32.63
2019-01-26T09:59:56.525Z,24.33
2019-01-26T10:11:20.922Z,21.40
2019-01-26T10:14:08.621Z,23.27
2019-01-26T10:20:04.173Z,22.33
2019-01-26T10:22:38.821Z,22.37
2019-01-26T10:25:08.069Z,24.00
2019-01-26T10:27:36.697Z,28.83
2019-01-26T10:30:06.109Z,29.27
2019-01-26T10:32:34.606Z,28.57
2019-01-26T10:35:03.546Z,29.93
2019-01-26T10:37:31.985Z,33.90
2019-01-26T10:40:00.801Z,31.53
2019-01-26T10:42:31.513Z,28.93
2019-01-26T10:45:00.250Z,31.17
2019-01-26T10:47:28.874Z,31.40
2019-01-26T10:49:57.378Z,24.23
2019-01-26T10:52:25.873Z,20.87
2019-01-26T10:54:54.274Z,22.50
2019-01-26T10:57:22.781Z,24.70
2019-01-26T10:59:51.321Z,19.87
2019-01-26T11:02:19.839Z,22.53
2019-01-26T11:04:48.403Z,20.20
2019-01-26T11:07:16.827Z,20.20
2019-01-26T11:09:45.374Z,21.70
2019-01-26T11:12:13.806Z,25.83
2019-01-26T11:14:42.294Z,24.87
2019-01-26T11:17:10.787Z,25.07
2019-01-26T11:19:39.303Z,23.57
2019-01-26T11:22:07.779Z,28.90
2019-01-26T11:24:37.032Z,23.43
2019-01-26T11:27:05.581Z,22.73
2019-01-26T11:29:34.074Z,20.63
2019-01-26T11:32:02.578Z,19.43
2019-01-26T11:34:31.111Z,16.60
2019-01-26T11:36:59.627Z,15.30
2019-01-26T11:39:28.119Z,15.70
2019-01-26T11:41:56.606Z,13.43
2019-01-26T11:44:25.055Z,16.03
2019-01-26T11:47:12.599Z,13.40
2019-01-26T11:49:46.847Z,12.47
2019-01-26T11:52:15.250Z,12.23
2019-01-26T11:55:06.086Z,10.97
2019-01-26T11:57:36.916Z,13.57
2019-01-26T12:00:29.050Z,11.70
2019-01-26T12:03:03.614Z,12.40
2019-01-26T12:05:46.428Z,11.10
2019-01-26T12:08:14.843Z,10.83
2019-01-26T12:10:43.327Z,12.67
2019-01-26T12:13:11.847Z,11.90
2019-01-26T12:15:40.448Z,12.67
2019-01-26T12:18:09.024Z,11.00
2019-01-26T12:20:37.624Z,12.93
2019-01-26T12:23:06.187Z,11.60
2019-01-26T12:25:35.703Z,14.80
2019-01-26T12:28:04.213Z,12.20
2019-01-26T12:30:33.059Z,12.63
2019-01-26T12:33:01.643Z,13.60
2019-01-26T12:35:30.136Z,13.90
2019-01-26T12:37:58.747Z,16.43
2019-01-26T12:40:27.255Z,17.03
2019-01-26T12:42:55.752Z,17.63
2019-01-26T12:45:24.264Z,16.23
2019-01-26T12:47:53.020Z,19.67
2019-01-26T12:50:21.524Z,21.90
2019-01-26T12:52:50.034Z,21.40
2019-01-26T12:55:18.704Z,21.43
2019-01-26T12:57:47.196Z,20.47
2019-01-26T13:00:17.013Z,20.53
2019-01-26T13:02:45.508Z,18.50
2019-01-26T13:05:14.136Z,20.87
2019-01-26T13:07:42.648Z,22.10
2019-01-26T13:10:16.008Z,24.07
2019-01-26T13:12:44.523Z,23.47
2019-01-26T13:15:15.350Z,22.27
2019-01-26T13:17:43.322Z,25.00
2019-01-26T13:20:12.728Z,29.13
2019-01-26T13:22:41.369Z,24.10
2019-01-26T13:25:10.324Z,29.63
2019-01-26T13:27:38.900Z,28.07
2019-01-26T13:30:08.917Z,28.50
2019-01-26T13:32:37.893Z,28.97
2019-01-26T13:35:07.069Z,27.50
2019-01-26T13:37:35.785Z,25.70
2019-01-26T13:40:05.176Z,26.70
2019-01-26T13:42:33.664Z,26.53
2019-01-26T13:45:02.125Z,30.27
2019-01-26T13:47:37.500Z,23.93
2019-01-26T13:50:00.758Z,26.53
2019-01-26T13:52:29.249Z,25.00
2019-01-26T13:54:57.737Z,24.07
2019-01-26T13:57:26.169Z,24.77
2019-01-26T13:59:54.645Z,26.00
2019-01-26T14:02:23.481Z,26.97
2019-01-26T14:04:52.029Z,27.20
2019-01-26T14:07:20.509Z,28.50
2019-01-26T14:09:48.949Z,27.53
2019-01-26T14:12:17.450Z,27.07
2019-01-26T14:14:45.853Z,29.73
2019-01-26T14:17:14.421Z,26.93
2019-01-26T14:19:42.925Z,32.37
2019-01-26T14:22:11.366Z,30.80
2019-01-26T14:24:39.873Z,28.23
2019-01-26T14:27:08.261Z,30.30
2019-01-26T14:29:36.745Z,29.90
2019-01-26T14:32:05.266Z,28.37
2019-01-26T14:34:33.773Z,26.60
2019-01-26T14:37:02.258Z,24.77
2019-01-26T14:39:30.758Z,25.57
2019-01-26T14:41:59.270Z,27.67
2019-01-26T14:44:27.682Z,30.67
2019-01-26T14:46:56.162Z,23.87
2019-01-26T14:49:24.663Z,28.37
2019-01-26T14:51:53.166Z,23.83
2019-01-26T14:54:21.655Z,25.43
2019-01-26T14:56:50.142Z,23.07
2019-01-26T14:59:18.637Z,27.40
2019-01-26T15:01:47.211Z,23.50
2019-01-26T15:04:15.718Z,24.30
2019-01-26T15:06:44.218Z,28.80
2019-01-26T15:09:12.718Z,20.47
2019-01-26T15:11:41.129Z,17.77
2019-01-26T15:14:09.558Z,19.10
2019-01-26T15:16:38.650Z,16.30
2019-01-26T15:19:07.146Z,17.60
2019-01-26T15:21:35.626Z,16.83
2019-01-26T15:24:04.315Z,17.13
2019-01-26T15:26:33.054Z,18.93
2019-01-26T15:29:01.721Z,16.63
2019-01-26T15:31:30.247Z,18.03
2019-01-26T15:33:58.775Z,15.97
2019-01-26T15:36:27.178Z,15.83
2019-01-26T15:38:55.671Z,19.73
2019-01-26T15:41:24.173Z,15.17
2019-01-26T15:43:52.668Z,13.20
2019-01-26T15:46:21.159Z,14.67
2019-01-26T15:48:51.759Z,12.70
2019-01-26T15:51:20.290Z,11.67
2019-01-26T15:53:48.783Z,11.77
2019-01-26T15:56:17.227Z,10.90
2019-01-26T15:58:45.707Z,12.50
2019-01-26T16:01:14.252Z,11.03
2019-01-26T16:03:42.774Z,11.47
2019-01-26T16:06:11.584Z,12.30
2019-01-26T16:08:40.096Z,12.67
2019-01-26T16:11:08.600Z,14.17
2019-01-26T16:13:37.204Z,13.27
2019-01-26T16:16:05.807Z,13.73
2019-01-26T16:18:34.680Z,14.17
2019-01-26T16:21:03.264Z,15.30
2019-01-26T16:23:31.777Z,13.47
2019-01-26T16:26:00.328Z,15.63
2019-01-26T16:28:28.793Z,14.27
2019-01-26T16:30:57.296Z,15.33
2019-01-26T16:33:25.800Z,18.30
2019-01-26T16:35:54.293Z,15.07
2019-01-26T16:38:23.156Z,18.17
2019-01-26T16:40:51.674Z,20.67
2019-01-26T16:43:20.177Z,17.80
2019-01-26T16:45:48.665Z,17.90
2019-01-26T16:48:17.173Z,16.87
2019-01-26T16:50:45.673Z,16.40
2019-01-26T16:53:14.167Z,16.30
2019-01-26T16:55:42.640Z,16.53
2019-01-26T16:58:11.297Z,17.20
2019-01-26T17:00:43.890Z,15.20
2019-01-26T17:03:12.378Z,17.73
2019-01-26T17:05:40.938Z,15.70
2019-01-26T17:08:09.818Z,16.67
2019-01-26T17:10:39.216Z,15.27
2019-01-26T17:13:07.757Z,16.30
2019-01-26T17:15:36.237Z,16.63
2019-01-26T17:18:05.173Z,17.27
2019-01-26T17:20:35.081Z,15.17
2019-01-26T17:23:04.105Z,17.50
2019-01-26T17:25:32.619Z,13.90
2019-01-26T17:28:01.161Z,15.80
2019-01-26T17:30:30.733Z,14.00
2019-01-26T17:32:59.405Z,13.93
2019-01-26T17:35:27.841Z,15.13
2019-01-26T17:37:56.321Z,13.60
2019-01-26T17:40:25.105Z,12.57
2019-01-26T17:42:53.661Z,13.63
2019-01-26T17:45:22.257Z,12.70
2019-01-26T17:47:50.999Z,13.10
2019-01-26T17:50:20.367Z,12.93
2019-01-26T17:52:48.918Z,13.43
2019-01-26T17:55:17.418Z,12.73
2019-01-26T17:57:45.904Z,14.10
2019-01-26T18:00:15.906Z,14.28
2019-01-26T18:02:44.466Z,15.53
2019-01-26T18:05:13.071Z,14.20
2019-01-26T18:07:41.954Z,13.93
2019-01-26T18:10:11.954Z,14.37
2019-01-26T18:12:40.654Z,14.97
2019-01-26T18:15:10.124Z,15.07
2019-01-26T18:17:39.458Z,16.50
2019-01-26T18:20:09.030Z,14.50
2019-01-26T18:22:37.542Z,14.50
2019-01-26T18:25:06.094Z,13.93
2019-01-26T18:27:34.642Z,13.57
2019-01-26T18:30:03.147Z,12.50
2019-01-26T18:32:31.655Z,12.83
2019-01-26T18:35:00.177Z,12.43
2019-01-26T18:37:28.726Z,13.60
2019-01-26T18:39:57.227Z,16.20
2019-01-26T18:42:25.731Z,14.67
2019-01-26T18:44:54.219Z,14.63
2019-01-26T18:47:22.667Z,15.53
2019-01-26T18:49:51.151Z,15.47
2019-01-26T18:52:19.652Z,13.70
2019-01-26T18:54:48.186Z,13.87
2019-01-26T18:57:16.646Z,15.43
2019-01-26T19:00:04.295Z,14.70
2019-01-26T19:02:51.931Z,14.07
2019-01-26T19:05:39.550Z,13.77
2019-01-26T19:08:27.179Z,12.47
2019-01-26T19:31:46.763Z,14.93
2019-01-26T19:34:34.383Z,15.53
2019-01-26T19:37:21.995Z,16.30
2019-01-26T19:40:09.672Z,16.67
2019-01-26T19:46:04.131Z,20.37
2019-01-26T19:48:51.864Z,21.23
2019-01-26T19:51:39.516Z,21.57
2019-01-26T19:54:27.308Z,24.70
2019-01-26T19:57:15.152Z,24.90
2019-01-26T20:03:09.632Z,24.70
2019-01-26T20:11:44.176Z,24.77
2019-01-26T20:14:12.808Z,25.37
2019-01-26T20:17:00.508Z,25.70
2019-01-26T20:19:48.200Z,22.50
2019-01-26T20:22:36.063Z,25.17
2019-01-26T20:25:23.688Z,23.13
2019-01-26T20:28:11.352Z,21.80
2019-01-26T20:30:59.714Z,21.27
2019-01-26T20:33:47.369Z,21.73
2019-01-26T20:36:35.140Z,21.00
2019-01-26T20:39:22.789Z,20.77
2019-01-26T20:42:10.412Z,19.90
2019-01-26T20:44:58.184Z,19.70
2019-01-26T20:50:38.857Z,19.20
2019-01-26T20:53:26.472Z,20.30
2019-01-26T20:55:55.161Z,19.97
2019-01-26T20:58:42.794Z,20.60
2019-01-26T21:04:37.405Z,20.00
2019-01-26T21:07:25.142Z,20.53
2019-01-26T21:10:12.765Z,18.67
2019-01-26T21:12:41.305Z,19.87
2019-01-26T21:21:22.009Z,18.60
2019-01-26T21:32:55.778Z,16.10
2019-01-26T21:35:43.441Z,14.47
2019-01-26T21:38:31.077Z,15.37
2019-01-26T21:41:18.704Z,14.77
2019-01-26T21:44:06.518Z,14.33
2019-01-26T21:46:54.134Z,13.67
2019-01-26T21:49:22.678Z,13.63
2019-01-26T21:52:10.362Z,12.97
2019-01-26T21:54:58.290Z,13.30
2019-01-26T22:00:52.703Z,12.23
2019-01-26T22:03:40.620Z,12.67
2019-01-26T22:06:09.231Z,11.83
2019-01-26T22:08:37.731Z,12.27
2019-01-26T22:11:06.213Z,12.03
2019-01-26T22:13:34.655Z,12.10
2019-01-26T22:16:03.120Z,12.00
2019-01-26T22:18:50.764Z,11.10
2019-01-26T22:21:19.250Z,11.80
2019-01-26T22:23:47.655Z,11.60
2019-01-26T22:26:35.359Z,11.17
2019-01-26T22:29:23.012Z,10.17
2019-01-26T22:32:10.608Z,11.27
2019-01-26T22:34:58.248Z,10.63
2019-01-26T22:37:26.738Z,10.77
2019-01-26T22:40:14.364Z,11.20
2019-01-26T22:43:01.968Z,12.17
2019-01-26T22:45:49.591Z,11.17
2019-01-26T22:48:37.228Z,10.93
2019-01-26T22:51:05.704Z,10.33
2019-01-26T22:53:53.433Z,11.60
2019-01-26T22:56:41.058Z,11.03
2019-01-26T23:02:21.620Z,10.53
2019-01-26T23:05:09.274Z,9.87
2019-01-26T23:07:57.096Z,9.60
2019-01-26T23:10:29.405Z,10.10
2019-01-26T23:13:17.004Z,10.07
